createdAt,value
2023-03-12T00:07:04.672Z,1.3
2023-03-12T00:14:36.953Z,1.3
2023-03-12T00:22:09.270Z,1.4
2023-03-12T00:29:41.597Z,2.2
2023-03-12T00:37:13.944Z,1.7
2023-03-12T00:44:46.248Z,1.8
2023-03-12T00:52:18.558Z,1.6
2023-03-12T00:59:50.861Z,6.4
2023-03-12T01:07:23.178Z,3.1
2023-03-12T01:14:55.502Z,2.4
2023-03-12T01:22:27.858Z,2.0
2023-03-12T01:30:00.174Z,2.0
2023-03-12T01:37:32.485Z,2.3
2023-03-12T01:45:04.794Z,3.1
2023-03-12T01:52:37.099Z,3.4
2023-03-12T02:00:09.465Z,4.7
2023-03-12T02:07:41.760Z,3.1
2023-03-12T02:15:14.047Z,2.8
2023-03-12T02:22:46.342Z,2.6
2023-03-12T02:30:18.668Z,1.5
2023-03-12T02:37:50.988Z,2.9
2023-03-12T02:45:23.297Z,2.4
2023-03-12T02:52:55.606Z,3.0
2023-03-12T03:00:27.941Z,2.3
2023-03-12T03:08:00.253Z,2.3
2023-03-12T03:15:32.616Z,2.4
2023-03-12T03:23:05.074Z,2.2
2023-03-12T03:30:37.379Z,2.1
2023-03-12T03:38:09.692Z,2.2
2023-03-12T03:45:41.990Z,1.5
2023-03-12T03:53:14.282Z,2.2
2023-03-12T04:00:46.602Z,4.6
2023-03-12T04:08:18.902Z,1.7
2023-03-12T04:15:51.244Z,2.1
2023-03-12T04:23:23.569Z,1.5
2023-03-12T04:30:55.913Z,1.7
2023-03-12T04:38:28.280Z,2.1
2023-03-12T04:46:00.584Z,1.0
2023-03-12T04:53:32.996Z,1.3
2023-03-12T05:01:05.353Z,2.4
2023-03-12T05:08:37.654Z,1.7
2023-03-12T05:16:10.007Z,2.0
2023-03-12T05:23:42.318Z,1.5
2023-03-12T05:31:14.743Z,2.0
2023-03-12T05:38:47.090Z,2.2
2023-03-12T05:46:19.413Z,2.4
2023-03-12T05:53:51.740Z,5.2
2023-03-12T06:01:24.050Z,1.5
2023-03-12T06:08:56.366Z,3.6
2023-03-12T06:16:28.715Z,1.7
2023-03-12T06:24:01.060Z,1.6
2023-03-12T06:31:33.449Z,2.8
2023-03-12T06:39:05.778Z,2.4
2023-03-12T06:46:38.124Z,1.4
2023-03-12T06:54:10.492Z,1.2
2023-03-12T07:01:42.794Z,1.9
2023-03-12T07:09:15.118Z,1.8
2023-03-12T07:16:47.463Z,1.6
2023-03-12T07:24:19.787Z,1.1
2023-03-12T07:31:52.091Z,1.0
2023-03-12T07:39:24.391Z,5.7
2023-03-12T07:46:56.813Z,3.5
2023-03-12T07:54:29.244Z,1.5
2023-03-12T08:02:01.792Z,1.4
2023-03-12T08:06:51.694Z,1.2
2023-03-12T08:07:39.026Z,1.6
2023-03-12T08:08:26.423Z,2.6
2023-03-12T08:09:13.796Z,2.9
2023-03-12T08:10:01.188Z,2.3
2023-03-12T08:17:33.519Z,4.2
2023-03-12T08:25:05.852Z,7.6
2023-03-12T08:32:38.259Z,4.1
2023-03-12T08:40:10.613Z,4.1
2023-03-12T08:47:42.918Z,2.1
2023-03-12T08:55:15.239Z,1.9
2023-03-12T09:02:47.616Z,2.8
2023-03-12T09:10:19.940Z,1.7
2023-03-12T09:17:52.255Z,2.7
2023-03-12T09:25:24.620Z,1.5
2023-03-12T09:32:57.024Z,1.4
2023-03-12T09:40:29.417Z,1.0
2023-03-12T09:48:01.741Z,2.6
2023-03-12T09:55:34.061Z,1.2
2023-03-12T10:03:06.381Z,1.4
2023-03-12T10:10:38.686Z,1.1
2023-03-12T10:18:11.100Z,1.3
2023-03-12T10:25:43.422Z,1.5
2023-03-12T10:33:15.729Z,1.0
2023-03-12T10:40:48.072Z,1.1
2023-03-12T10:48:20.383Z,1.2
2023-03-12T10:55:52.704Z,1.2
2023-03-12T11:03:25.083Z,1.9
2023-03-12T11:10:57.387Z,1.3
2023-03-12T11:18:29.730Z,1.2
2023-03-12T11:26:02.041Z,2.9
2023-03-12T11:33:34.335Z,2.4
2023-03-12T11:41:06.659Z,0.8
2023-03-12T11:48:39.013Z,0.9
2023-03-12T11:56:11.371Z,0.8
2023-03-12T12:03:43.800Z,1.3
2023-03-12T12:11:16.123Z,1.4
2023-03-12T12:18:48.452Z,0.9
2023-03-12T12:26:21.196Z,3.0
2023-03-12T12:33:53.732Z,1.6
2023-03-12T12:41:26.062Z,2.3
2023-03-12T12:48:58.360Z,1.3
2023-03-12T12:56:30.669Z,0.8
2023-03-12T13:04:03.054Z,1.2
2023-03-12T13:11:35.375Z,1.1
2023-03-12T13:19:07.724Z,1.4
2023-03-12T13:26:40.025Z,1.3
2023-03-12T13:34:12.384Z,2.5
2023-03-12T13:41:44.739Z,0.7
2023-03-12T13:49:17.548Z,1.0
2023-03-12T13:56:49.873Z,2.1
2023-03-12T14:04:22.220Z,1.0
2023-03-12T14:11:54.554Z,1.4
2023-03-12T14:19:26.876Z,1.3
2023-03-12T14:26:59.212Z,0.8
2023-03-12T14:34:31.530Z,1.1
2023-03-12T14:42:03.833Z,0.9
2023-03-12T14:49:36.132Z,1.1
2023-03-12T14:57:08.495Z,0.6
2023-03-12T15:04:40.902Z,2.9
2023-03-12T15:12:13.286Z,1.4
2023-03-12T15:19:45.766Z,1.2
2023-03-12T15:27:18.071Z,1.4
2023-03-12T15:34:50.424Z,2.8
2023-03-12T15:42:22.890Z,0.9
2023-03-12T15:49:55.273Z,0.9
2023-03-12T15:57:27.586Z,1.0
2023-03-12T16:04:59.911Z,1.4
2023-03-12T16:12:32.218Z,1.2
2023-03-12T16:20:04.552Z,1.1
2023-03-12T16:27:36.898Z,0.7
2023-03-12T16:35:09.227Z,0.9
2023-03-12T16:42:41.808Z,0.6
2023-03-12T16:50:14.149Z,0.9
2023-03-12T16:57:46.470Z,0.6
2023-03-12T17:05:18.801Z,0.7
2023-03-12T17:12:51.191Z,2.3
2023-03-12T17:20:23.526Z,2.9
2023-03-12T17:27:55.854Z,0.8
2023-03-12T17:35:28.209Z,1.1
2023-03-12T17:43:00.606Z,1.2
2023-03-12T17:50:33.218Z,1.2
2023-03-12T17:58:05.544Z,1.3
2023-03-12T18:05:37.881Z,2.7
2023-03-12T18:13:10.194Z,1.7
2023-03-12T18:20:42.518Z,0.7
2023-03-12T18:28:14.835Z,1.2
2023-03-12T18:35:47.201Z,1.6
2023-03-12T18:43:21.738Z,1.9
2023-03-12T18:50:54.250Z,1.6
2023-03-12T18:58:26.560Z,2.0
2023-03-12T19:05:58.881Z,3.0
2023-03-12T19:13:31.224Z,2.1
2023-03-12T19:21:03.567Z,1.6
2023-03-12T19:28:38.458Z,2.3
2023-03-12T19:36:10.779Z,3.4
2023-03-12T19:43:43.132Z,3.7
2023-03-12T19:51:15.436Z,4.6
2023-03-12T19:58:47.742Z,4.5
2023-03-12T20:06:20.068Z,5.1
2023-03-12T20:13:52.392Z,4.6
2023-03-12T20:21:24.695Z,5.7
2023-03-12T20:28:56.994Z,5.1
2023-03-12T20:36:29.424Z,5.5
2023-03-12T20:44:01.742Z,4.5
2023-03-12T20:51:34.065Z,5.4
2023-03-12T20:59:06.400Z,5.0
2023-03-12T21:06:38.705Z,4.4
2023-03-12T21:14:11.026Z,4.3
2023-03-12T21:21:43.332Z,4.3
2023-03-12T21:29:15.639Z,5.1
2023-03-12T21:36:47.961Z,4.0
2023-03-12T21:44:20.287Z,3.8
2023-03-12T21:51:52.597Z,4.1
2023-03-12T21:59:24.905Z,4.3
2023-03-12T22:06:57.200Z,4.1
2023-03-12T22:14:29.521Z,3.9
2023-03-12T22:22:01.830Z,4.0
2023-03-12T22:29:34.172Z,3.7
2023-03-12T22:37:06.485Z,4.6
2023-03-12T22:44:38.793Z,6.7
2023-03-12T22:52:11.107Z,3.5
2023-03-12T22:59:43.429Z,3.0
2023-03-12T23:07:17.237Z,3.8
2023-03-12T23:14:50.050Z,2.6
2023-03-12T23:22:22.389Z,3.4
2023-03-12T23:29:54.712Z,5.1
2023-03-12T23:37:27.041Z,3.9
2023-03-12T23:44:59.355Z,3.3
2023-03-12T23:52:31.717Z,3.2
